Saturday, November 18, 2017, 6:05 PM EST
Back to Local

KLGA, New York La Guardia Airport

Location: Astoria, NY, United States Lat: 40.783
Local Time: 6:05 PM EST (23:05 GMT) Lon: -73.883
Time Zone: US/Eastern Elev: 22 ft

Show me the last for .
Show Decoded

2017-11-18 17:51 METAR KLGA 182251Z 00000KT 9SM -RA BKN080 OVC090 10/06 A2963 RMK AO2 SLP032
                 P0003 T01000061 =
2017-11-18 16:51 METAR KLGA 182151Z 19004KT 10SM -RA FEW070 OVC095 11/05 A2964 RMK AO2 RAB2057
                 SLP036 P0001 T01060050 =
2017-11-18 15:51 METAR KLGA 182051Z 20009KT 10SM FEW075 OVC095 11/04 A2966 RMK AO2 RAE26 SLP045
                 P0001 60001 T01110039 56037 =
2017-11-18 14:51 METAR KLGA 181951Z 18013G20KT 10SM -RA OVC095 11/04 A2968 RMK AO2 RAE16B43
                 SLP049 P0000 T01110039 =
2017-11-18 13:51 METAR KLGA 181851Z 18011G17KT 10SM -RA OVC090 11/03 A2971 RMK AO2 RAB37 SLP062
                 P0000 T01060033 =
2017-11-18 12:51 METAR KLGA 181751Z 18012G19KT 10SM FEW120 BKN170 BKN210 10/01 A2977 RMK AO2
                 SLP082 T01000011 10100 20039 58050 =
2017-11-18 11:51 METAR KLGA 181651Z 19013G20KT 10SM FEW120 BKN140 BKN210 09/M01 A2982 RMK AO2
                 SLP098 T00891006 =
2017-11-18 10:51 METAR KLGA 181551Z 20013G20KT 10SM FEW120 BKN140 OVC210 09/M01 A2988 RMK AO2
                 SLP117 T00891006 =
2017-11-18 09:51 METAR KLGA 181451Z 21007KT 10SM BKN140 OVC210 08/M02 A2992 RMK AO2 SLP132
                 T00781017 58021 =
2017-11-18 08:51 METAR KLGA 181351Z 00000KT 10SM FEW170 SCT210 BKN260 06/M03 A2995 RMK AO2 SLP141
                 T00611033 =
2017-11-18 07:51 METAR KLGA 181251Z 00000KT 10SM FEW150 BKN260 05/M03 A2997 RMK AO2 SLP147
                 T00501033 =
2017-11-18 06:51 METAR KLGA 181151Z 20005KT 10SM FEW150 BKN260 04/M06 A2998 RMK AO2 SLP153 ACSL W
                 T00391061 10044 20022 58006 =
2017-11-18 05:51 METAR KLGA 181051Z 16003KT 10SM BKN250 03/M06 A3000 RMK AO2 SLP157 T00281061 =
2017-11-18 04:51 METAR KLGA 180951Z 21003KT 10SM FEW250 03/M07 A3000 RMK AO2 SLP160 T00281067 =
2017-11-18 03:51 METAR KLGA 180851Z 00000KT 10SM FEW250 03/M08 A3000 RMK AO2 SLP159 T00281078
                 58014 =
2017-11-18 02:51 METAR KLGA 180751Z 00000KT 10SM SCT250 04/M08 A3001 RMK AO2 PRESFR SLP162
                 T00391078 =
2017-11-18 01:51 METAR KLGA 180651Z COR 30005KT 10SM SCT250 04/M08 A3005 RMK AO2 SLP174 T00391078
                 =
2017-11-18 00:51 METAR KLGA 180551Z 31008KT 10SM CLR 04/M08 A3004 RMK AO2 SLP172 T00441083 10072
                 20044 58015 =
2017-11-17 23:51 METAR KLGA 180451Z 29010KT 10SM FEW250 05/M08 A3007 RMK AO2 SLP182 T00501078
                 400940050 =
2017-11-17 22:51 METAR KLGA 180351Z 29006KT 10SM FEW180 05/M09 A3007 RMK AO2 SLP183 T00501089 =
2017-11-17 21:51 METAR KLGA 180251Z 29010KT 10SM FEW250 06/M08 A3009 RMK AO2 SLP187 T00561078
                 53002 =
2017-11-17 20:51 METAR KLGA 180151Z 33012KT 10SM FEW250 06/M07 A3007 RMK AO2 SLP183 T00611072 =
2017-11-17 19:51 METAR KLGA 180051Z 30015KT 10SM FEW250 06/M07 A3007 RMK AO2 SLP183 T00611072 =
2017-11-17 18:51 METAR KLGA 172351Z 31015KT 10SM SCT250 07/M07 A3008 RMK AO2 SLP185 T00721072
                 10094 20072 53006 =

Support USWX by starting your Amazon purchase here.